Temp: 12.4°C   Baro: 1022.5mb
  Wind: 0.0mph   Dir: NE (54°)
  Rain: 0.0mm (0.0mm/hr)
  Solar: 0W/m2  Hum: 85%

Historic data

Bath Spa Weather Station Historical Data
Daily Summary for September 25, 2021 Units:  Both    English   Metric
Daily Weekly Monthly Yearly Custom
  High: Low: Average:
Temperature: 67.5 °F /  19.7 °C 59.4 °F /  15.2 °C 62.8 °F /  17.1 °C
Dew Point: 62.8 °F /  17.1 °C 57.3 °F /  14.1 °C 60.4 °F /  15.8 °C
Humidity: 95% 80.4% 90%
Wind Speed: 4.7mph /  7.6km/h - 1.1mph /  1.8km/h
Wind Gust: 9mph /  14.5km/h - -
Wind- - WNW
Pressure: 30.01 in /  1016.1 hPa 29.89 in /  1012.1 hPa -
Precipitation: 0.00 in /  0 mm    
Historical Graphs
 
 
Tabular Data for September 25, 2021
Time Temperature Dew Point Pressure Wind Wind Speed Wind Gust Humidity Rainfall Rate (Hourly) solar
00:04 62.3 °F /  16.8 °C 60.9 °F /  16.1 °C 30.01in /  1016.1hPa WNW 2.4mph /  3.9km/h 5mph /  8km/h 92% 0.00in /  0mm 0 W/m2
00:09 62.2 °F /  16.8 °C 60.8 °F /  16 °C 30.01in /  1016.1hPa WNW 3mph /  4.8km/h 5mph /  8km/h 92% 0.00in /  0mm 0 W/m2
00:14 62.2 °F /  16.8 °C 60.8 °F /  16 °C 30.01in /  1016.1hPa WNW 3.6mph /  5.8km/h 6mph /  9.7km/h 92% 0.00in /  0mm 0 W/m2
00:18 62.2 °F /  16.8 °C 60.8 °F /  16 °C 30.01in /  1016.1hPa WNW 2.7mph /  4.3km/h 5mph /  8km/h 92% 0.00in /  0mm 0 W/m2
00:24 62.2 °F /  16.8 °C 60.8 °F /  16 °C 30.01in /  1016.1hPa WNW 3.3mph /  5.3km/h 5mph /  8km/h 92% 0.00in /  0mm 0 W/m2
00:29 62.1 °F /  16.7 °C 60.6 °F /  15.9 °C 30.01in /  1016.1hPa WNW 1.7mph /  2.7km/h 5mph /  8km/h 92% 0.00in /  0mm 0 W/m2
00:34 62.1 °F /  16.7 °C 60.8 °F /  16 °C 30.01in /  1016.1hPa WNW 1.9mph /  3.1km/h 5mph /  8km/h 92.6% 0.00in /  0mm 0 W/m2
00:39 62 °F /  16.7 °C 60.9 °F /  16.1 °C 30.01in /  1016.1hPa WNW 2.5mph /  4km/h 5mph /  8km/h 93% 0.00in /  0mm 0 W/m2
00:44 61.9 °F /  16.6 °C 60.8 °F /  16 °C 30.01in /  1016.1hPa WNW 3.4mph /  5.5km/h 5mph /  8km/h 93% 0.00in /  0mm 0 W/m2
00:49 61.8 °F /  16.6 °C 60.7 °F /  15.9 °C 30.01in /  1016.1hPa WNW 1.4mph /  2.3km/h 4mph /  6.4km/h 93% 0.00in /  0mm 0 W/m2
00:54 61.6 °F /  16.4 °C 60.5 °F /  15.8 °C 30.01in /  1016.1hPa WNW 2.8mph /  4.5km/h 5mph /  8km/h 93% 0.00in /  0mm 0 W/m2
00:59 61.5 °F /  16.4 °C 60.4 °F /  15.8 °C 30.01in /  1016.1hPa WNW 2.1mph /  3.4km/h 5mph /  8km/h 93% 0.00in /  0mm 0 W/m2
01:04 61.5 °F /  16.4 °C 60.4 °F /  15.8 °C 30.00in /  1015.8hPa WNW 4.2mph /  6.8km/h 7mph /  11.3km/h 93% 0.00in /  0mm 0 W/m2
01:09 61.5 °F /  16.4 °C 60.4 °F /  15.8 °C 30.00in /  1015.8hPa WNW 2.3mph /  3.7km/h 5mph /  8km/h 93% 0.00in /  0mm 0 W/m2
01:14 61.4 °F /  16.3 °C 60.3 °F /  15.7 °C 30.00in /  1015.8hPa WNW 2.6mph /  4.2km/h 5mph /  8km/h 93% 0.00in /  0mm 0 W/m2
01:19 61.3 °F /  16.3 °C 60.3 °F /  15.7 °C 30.00in /  1015.8hPa WNW 1.6mph /  2.6km/h 4mph /  6.4km/h 93% 0.00in /  0mm 0 W/m2
01:24 61.4 °F /  16.3 °C 60.3 °F /  15.7 °C 30.00in /  1015.8hPa WNW 2.9mph /  4.7km/h 6mph /  9.7km/h 93% 0.00in /  0mm 0 W/m2
01:29 61.3 °F /  16.3 °C 60.3 °F /  15.7 °C 30.00in /  1015.8hPa WNW 4.1mph /  6.6km/h 7mph /  11.3km/h 93% 0.00in /  0mm 0 W/m2
01:34 61.3 °F /  16.3 °C 60.4 °F /  15.8 °C 30.00in /  1015.8hPa WNW 1.6mph /  2.6km/h 4mph /  6.4km/h 93.8% 0.00in /  0mm 0 W/m2
01:39 61.3 °F /  16.3 °C 60.4 °F /  15.8 °C 30.01in /  1016.1hPa WNW 2mph /  3.2km/h 6mph /  9.7km/h 94% 0.00in /  0mm 0 W/m2
01:44 61.2 °F /  16.2 °C 60.3 °F /  15.7 °C 30.01in /  1016.1hPa WNW 2.5mph /  4km/h 6mph /  9.7km/h 94% 0.00in /  0mm 0 W/m2
01:49 61.2 °F /  16.2 °C 60.3 °F /  15.7 °C 30.01in /  1016.1hPa WNW 3.2mph /  5.1km/h 5mph /  8km/h 94% 0.00in /  0mm 0 W/m2
01:54 61.2 °F /  16.2 °C 60.3 °F /  15.7 °C 30.00in /  1015.8hPa WNW 2.9mph /  4.7km/h 5mph /  8km/h 94% 0.00in /  0mm 0 W/m2
01:59 61.2 °F /  16.2 °C 60.3 °F /  15.7 °C 30.00in /  1015.8hPa WNW 1.7mph /  2.7km/h 5mph /  8km/h 94% 0.00in /  0mm 0 W/m2
02:04 61.2 °F /  16.2 °C 60.3 °F /  15.7 °C 30.00in /  1015.8hPa WNW 2.9mph /  4.7km/h 6mph /  9.7km/h 94% 0.00in /  0mm 0 W/m2
02:09 61 °F /  16.1 °C 60.1 °F /  15.6 °C 30.00in /  1015.8hPa WNW 1.9mph /  3.1km/h 6mph /  9.7km/h 94% 0.00in /  0mm 0 W/m2
02:14 61 °F /  16.1 °C 60.1 °F /  15.6 °C 30.00in /  1015.8hPa WNW 2.5mph /  4km/h 5mph /  8km/h 94% 0.00in /  0mm 0 W/m2
02:19 60.9 °F /  16.1 °C 60 °F /  15.6 °C 30.00in /  1015.8hPa WNW 2.9mph /  4.7km/h 6mph /  9.7km/h 94% 0.00in /  0mm 0 W/m2
02:24 60.8 °F /  16 °C 59.9 °F /  15.5 °C 30.00in /  1015.8hPa WNW 1.7mph /  2.7km/h 6mph /  9.7km/h 94% 0.00in /  0mm 0 W/m2
02:29 60.8 °F /  16 °C 59.9 °F /  15.5 °C 30.00in /  1015.8hPa WNW 2.5mph /  4km/h 6mph /  9.7km/h 94% 0.00in /  0mm 0 W/m2
02:34 60.8 °F /  16 °C 59.9 °F /  15.5 °C 30.00in /  1015.8hPa WNW 2.9mph /  4.7km/h 6mph /  9.7km/h 94% 0.00in /  0mm 0 W/m2
02:39 60.8 °F /  16 °C 59.9 °F /  15.5 °C 30.00in /  1015.8hPa WNW 2mph /  3.2km/h 5mph /  8km/h 94% 0.00in /  0mm 0 W/m2
02:44 60.7 °F /  15.9 °C 59.8 °F /  15.4 °C 30.00in /  1015.8hPa WNW 2.1mph /  3.4km/h 7mph /  11.3km/h 94% 0.00in /  0mm 0 W/m2
02:49 60.7 °F /  15.9 °C 59.8 °F /  15.4 °C 30.00in /  1015.8hPa WNW 2.9mph /  4.7km/h 6mph /  9.7km/h 94% 0.00in /  0mm 0 W/m2
02:54 60.6 °F /  15.9 °C 59.7 °F /  15.4 °C 30.00in /  1015.8hPa WNW 2.5mph /  4km/h 5mph /  8km/h 94% 0.00in /  0mm 0 W/m2
02:59 60.6 °F /  15.9 °C 59.7 °F /  15.4 °C 30.00in /  1015.8hPa WNW 1.5mph /  2.4km/h 3mph /  4.8km/h 94% 0.00in /  0mm 0 W/m2
03:04 60.6 °F /  15.9 °C 59.7 °F /  15.4 °C 30.00in /  1015.8hPa WNW 1mph /  1.6km/h 3mph /  4.8km/h 94% 0.00in /  0mm 0 W/m2
03:09 60.6 °F /  15.9 °C 59.7 °F /  15.4 °C 30.00in /  1015.8hPa WNW 0.6mph /  1km/h 3mph /  4.8km/h 94% 0.00in /  0mm 0 W/m2
03:14 60.6 °F /  15.9 °C 59.7 °F /  15.4 °C 30.00in /  1015.8hPa WNW 1.7mph /  2.7km/h 4mph /  6.4km/h 94% 0.00in /  0mm 0 W/m2
03:19 60.6 °F /  15.9 °C 59.7 °F /  15.4 °C 30.00in /  1015.8hPa WNW 3mph /  4.8km/h 5mph /  8km/h 94% 0.00in /  0mm 0 W/m2
03:24 60.5 °F /  15.8 °C 59.6 °F /  15.3 °C 29.99in /  1015.5hPa WNW 2.3mph /  3.7km/h 5mph /  8km/h 94% 0.00in /  0mm 0 W/m2
03:29 60.5 °F /  15.8 °C 59.6 °F /  15.3 °C 29.99in /  1015.5hPa WNW 2.5mph /  4km/h 5mph /  8km/h 94% 0.00in /  0mm 0 W/m2
03:34 60.4 °F /  15.8 °C 59.5 °F /  15.3 °C 29.99in /  1015.5hPa WNW 2.4mph /  3.9km/h 5mph /  8km/h 94% 0.00in /  0mm 0 W/m2
03:39 60.4 °F /  15.8 °C 59.5 °F /  15.3 °C 29.99in /  1015.5hPa WNW 2.9mph /  4.7km/h 6mph /  9.7km/h 94% 0.00in /  0mm 0 W/m2
03:44 60.4 °F /  15.8 °C 59.5 °F /  15.3 °C 29.98in /  1015.1hPa WNW 2.2mph /  3.5km/h 5mph /  8km/h 94% 0.00in /  0mm 0 W/m2
03:49 60.4 °F /  15.8 °C 59.4 °F /  15.2 °C 29.98in /  1015.1hPa WNW 1.7mph /  2.7km/h 5mph /  8km/h 93.4% 0.00in /  0mm 0 W/m2
03:54 60.4 °F /  15.8 °C 59.4 °F /  15.2 °C 29.98in /  1015.1hPa WNW 0.9mph /  1.4km/h 3mph /  4.8km/h 93% 0.00in /  0mm 0 W/m2
03:59 60.4 °F /  15.8 °C 59.5 °F /  15.3 °C 29.98in /  1015.1hPa WNW 2.1mph /  3.4km/h 5mph /  8km/h 94% 0.00in /  0mm 0 W/m2
04:04 60.4 °F /  15.8 °C 59.5 °F /  15.3 °C 29.98in /  1015.1hPa WNW 0.9mph /  1.4km/h 3mph /  4.8km/h 93.8% 0.00in /  0mm 0 W/m2
04:09 60.4 °F /  15.8 °C 59.5 °F /  15.3 °C 29.98in /  1015.1hPa WNW 1.3mph /  2.1km/h 3mph /  4.8km/h 94% 0.00in /  0mm 0 W/m2
04:14 60.4 °F /  15.8 °C 59.5 °F /  15.3 °C 29.98in /  1015.1hPa WNW 0.6mph /  1km/h 3mph /  4.8km/h 93.8% 0.00in /  0mm 0 W/m2
04:19 60.4 °F /  15.8 °C 59.5 °F /  15.3 °C 29.98in /  1015.1hPa WNW 0.5mph /  0.8km/h 1mph /  1.6km/h 94% 0.00in /  0mm 0 W/m2
04:24 60.4 °F /  15.8 °C 59.5 °F /  15.3 °C 29.98in /  1015.1hPa WNW 0.2mph /  0.3km/h 1mph /  1.6km/h 94% 0.00in /  0mm 0 W/m2
04:29 60.4 °F /  15.8 °C 59.5 °F /  15.3 °C 29.98in /  1015.1hPa WNW 0.7mph /  1.1km/h 3mph /  4.8km/h 94% 0.00in /  0mm 0 W/m2
04:34 60.4 °F /  15.8 °C 59.5 °F /  15.3 °C 29.98in /  1015.1hPa WNW 0.5mph /  0.8km/h 2mph /  3.2km/h 94% 0.00in /  0mm 0 W/m2
04:39 60.4 °F /  15.8 °C 59.5 °F /  15.3 °C 29.98in /  1015.1hPa WNW 0.2mph /  0.3km/h 1mph /  1.6km/h 94% 0.00in /  0mm 0 W/m2
04:44 60.3 °F /  15.7 °C 59.4 °F /  15.2 °C 29.98in /  1015.1hPa WNW 0.8mph /  1.3km/h 2mph /  3.2km/h 93.8% 0.00in /  0mm 0 W/m2
04:49 60.3 °F /  15.7 °C 59.3 °F /  15.2 °C 29.98in /  1015.1hPa WNW 1.6mph /  2.6km/h 2mph /  3.2km/h 93.6% 0.00in /  0mm 0 W/m2
04:54 60.3 °F /  15.7 °C 59.2 °F /  15.1 °C 29.98in /  1015.1hPa WNW 0.8mph /  1.3km/h 2mph /  3.2km/h 93.2% 0.00in /  0mm 0 W/m2
04:59 60.3 °F /  15.7 °C 59.2 °F /  15.1 °C 29.98in /  1015.1hPa WNW 0.4mph /  0.6km/h 3mph /  4.8km/h 93% 0.00in /  0mm 0 W/m2
05:04 60.3 °F /  15.7 °C 59.3 °F /  15.2 °C 29.98in /  1015.1hPa WNW 1.6mph /  2.6km/h 3mph /  4.8km/h 93.4% 0.00in /  0mm 0 W/m2
05:09 60.4 °F /  15.8 °C 59.4 °F /  15.2 °C 29.98in /  1015.1hPa WNW 1mph /  1.6km/h 2mph /  3.2km/h 93.8% 0.00in /  0mm 0 W/m2
05:14 60.4 °F /  15.8 °C 59.5 °F /  15.3 °C 29.98in /  1015.1hPa WNW 0.4mph /  0.6km/h 2mph /  3.2km/h 94% 0.00in /  0mm 0 W/m2
05:19 60.4 °F /  15.8 °C 59.5 °F /  15.3 °C 29.98in /  1015.1hPa WNW 1.2mph /  1.9km/h 2mph /  3.2km/h 94% 0.00in /  0mm 0 W/m2
05:24 60.4 °F /  15.8 °C 59.5 °F /  15.3 °C 29.98in /  1015.1hPa Calm   2mph /  3.2km/h 94% 0.00in /  0mm 0 W/m2
05:29 60.4 °F /  15.8 °C 59.5 °F /  15.3 °C 29.98in /  1015.1hPa WNW 0.4mph /  0.6km/h 2mph /  3.2km/h 94% 0.00in /  0mm 0 W/m2
05:34 60.5 °F /  15.8 °C 59.6 °F /  15.3 °C 29.98in /  1015.1hPa Calm   2mph /  3.2km/h 94% 0.00in /  0mm 0 W/m2
05:39 60.5 °F /  15.8 °C 59.6 °F /  15.3 °C 29.98in /  1015.1hPa WNW 0.2mph /  0.3km/h 2mph /  3.2km/h 94% 0.00in /  0mm 0 W/m2
05:44 60.6 °F /  15.9 °C 59.7 °F /  15.4 °C 29.97in /  1014.8hPa WNW 0.5mph /  0.8km/h 3mph /  4.8km/h 94% 0.00in /  0mm 0 W/m2
05:49 60.5 °F /  15.8 °C 59.6 °F /  15.3 °C 29.97in /  1014.8hPa WNW 0.4mph /  0.6km/h 3mph /  4.8km/h 94% 0.00in /  0mm 0 W/m2
05:54 60.4 °F /  15.8 °C 59.5 °F /  15.3 °C 29.97in /  1014.8hPa WNW 1mph /  1.6km/h 3mph /  4.8km/h 94% 0.00in /  0mm 0 W/m2
05:59 60.4 °F /  15.8 °C 59.5 °F /  15.3 °C 29.97in /  1014.8hPa WNW 1mph /  1.6km/h 4mph /  6.4km/h 94% 0.00in /  0mm 0 W/m2
06:04 60.4 °F /  15.8 °C 59.5 °F /  15.3 °C 29.97in /  1014.8hPa WNW 0.8mph /  1.3km/h 2mph /  3.2km/h 94% 0.00in /  0mm 0 W/m2
06:09 60.4 °F /  15.8 °C 59.5 °F /  15.3 °C 29.97in /  1014.8hPa Calm   3mph /  4.8km/h 93.6% 0.00in /  0mm 0 W/m2
06:14 60.4 °F /  15.8 °C 59.5 °F /  15.3 °C 29.97in /  1014.8hPa WNW 0.2mph /  0.3km/h 2mph /  3.2km/h 93.8% 0.00in /  0mm 0 W/m2
06:19 60.3 °F /  15.7 °C 59.3 °F /  15.2 °C 29.97in /  1014.8hPa WNW 0.5mph /  0.8km/h 2mph /  3.2km/h 93.4% 0.00in /  0mm 0 W/m2
06:24 60.3 °F /  15.7 °C 59.2 °F /  15.1 °C 29.97in /  1014.8hPa Calm   1mph /  1.6km/h 93% 0.00in /  0mm 0 W/m2
06:28 60.3 °F /  15.7 °C 59.3 °F /  15.2 °C 29.97in /  1014.8hPa WNW 0.2mph /  0.3km/h 1mph /  1.6km/h 93.5% 0.00in /  0mm 0 W/m2
06:34 60.3 °F /  15.7 °C 59.4 °F /  15.2 °C 29.97in /  1014.8hPa Calm   1mph /  1.6km/h 94% 0.00in /  0mm 0 W/m2
06:39 60.3 °F /  15.7 °C 59.4 °F /  15.2 °C 29.96in /  1014.4hPa Calm     94% 0.00in /  0mm 0 W/m2
06:44 60.3 °F /  15.7 °C 59.4 °F /  15.2 °C 29.96in /  1014.4hPa Calm     94% 0.00in /  0mm 0 W/m2
06:49 60.3 °F /  15.7 °C 59.4 °F /  15.2 °C 29.97in /  1014.8hPa Calm     94% 0.00in /  0mm 0 W/m2
06:54 60.3 °F /  15.7 °C 59.4 °F /  15.2 °C 29.97in /  1014.8hPa Calm     94% 0.00in /  0mm 0 W/m2
06:59 60.3 °F /  15.7 °C 59.4 °F /  15.2 °C 29.97in /  1014.8hPa Calm     94% 0.00in /  0mm 0 W/m2
07:04 60.1 °F /  15.6 °C 59.2 °F /  15.1 °C 29.97in /  1014.8hPa Calm     94% 0.00in /  0mm 0 W/m2
07:09 60.1 °F /  15.6 °C 59.2 °F /  15.1 °C 29.97in /  1014.8hPa WNW 0.4mph /  0.6km/h 2mph /  3.2km/h 94% 0.00in /  0mm 0 W/m2
07:14 60.1 °F /  15.6 °C 59.2 °F /  15.1 °C 29.97in /  1014.8hPa WNW 0.6mph /  1km/h 3mph /  4.8km/h 94% 0.00in /  0mm 5 W/m2
07:19 60.1 °F /  15.6 °C 59.2 °F /  15.1 °C 29.97in /  1014.8hPa WNW 0.5mph /  0.8km/h 3mph /  4.8km/h 94% 0.00in /  0mm 5 W/m2
07:24 60.1 °F /  15.6 °C 59.2 °F /  15.1 °C 29.97in /  1014.8hPa Calm   1mph /  1.6km/h 94% 0.00in /  0mm 9 W/m2
07:29 60.1 °F /  15.6 °C 59.2 °F /  15.1 °C 29.97in /  1014.8hPa WNW 0.6mph /  1km/h 2mph /  3.2km/h 94% 0.00in /  0mm 9 W/m2
07:34 60.1 °F /  15.6 °C 59.2 °F /  15.1 °C 29.97in /  1014.8hPa WNW 1.1mph /  1.8km/h 3mph /  4.8km/h 94% 0.00in /  0mm 12 W/m2
07:38 60.1 °F /  15.6 °C 59.2 °F /  15.1 °C 29.97in /  1014.8hPa WNW 1.9mph /  3.1km/h 4mph /  6.4km/h 94% 0.00in /  0mm 12 W/m2
07:44 60 °F /  15.6 °C 59.1 °F /  15.1 °C 29.97in /  1014.8hPa WNW 2mph /  3.2km/h 4mph /  6.4km/h 94% 0.00in /  0mm 14 W/m2
07:49 59.7 °F /  15.4 °C 58.8 °F /  14.9 °C 29.97in /  1014.8hPa WNW 1.6mph /  2.6km/h 4mph /  6.4km/h 94% 0.00in /  0mm 16 W/m2
07:54 59.7 °F /  15.4 °C 58.8 °F /  14.9 °C 29.97in /  1014.8hPa WNW 3.2mph /  5.1km/h 5mph /  8km/h 94% 0.00in /  0mm 26 W/m2
07:59 59.5 °F /  15.3 °C 58.6 °F /  14.8 °C 29.97in /  1014.8hPa WNW 2.5mph /  4km/h 5mph /  8km/h 94% 0.00in /  0mm 30 W/m2
08:04 59.5 °F /  15.3 °C 58.6 °F /  14.8 °C 29.97in /  1014.8hPa WNW 1.4mph /  2.3km/h 3mph /  4.8km/h 94% 0.00in /  0mm 40 W/m2
08:09 59.5 °F /  15.3 °C 58.6 °F /  14.8 °C 29.97in /  1014.8hPa WNW 2.1mph /  3.4km/h 5mph /  8km/h 94% 0.00in /  0mm 42 W/m2
08:14 59.5 °F /  15.3 °C 58.6 °F /  14.8 °C 29.97in /  1014.8hPa WNW 0.9mph /  1.4km/h 4mph /  6.4km/h 94% 0.00in /  0mm 39 W/m2
08:19 59.5 °F /  15.3 °C 58.6 °F /  14.8 °C 29.97in /  1014.8hPa WNW 1.2mph /  1.9km/h 4mph /  6.4km/h 94% 0.00in /  0mm 42 W/m2
08:24 59.4 °F /  15.2 °C 58.5 °F /  14.7 °C 29.98in /  1015.1hPa WNW 0.4mph /  0.6km/h 4mph /  6.4km/h 94% 0.00in /  0mm 54 W/m2
08:29 59.4 °F /  15.2 °C 58.5 °F /  14.7 °C 29.98in /  1015.1hPa WNW 0.9mph /  1.4km/h 4mph /  6.4km/h 94% 0.00in /  0mm 56 W/m2
08:34 59.4 °F /  15.2 °C 58.5 °F /  14.7 °C 29.98in /  1015.1hPa WNW 1mph /  1.6km/h 3mph /  4.8km/h 94% 0.00in /  0mm 53 W/m2
08:39 59.4 °F /  15.2 °C 58.5 °F /  14.7 °C 29.98in /  1015.1hPa WNW 0.6mph /  1km/h 3mph /  4.8km/h 94% 0.00in /  0mm 63 W/m2
08:44 59.4 °F /  15.2 °C 58.5 °F /  14.7 °C 29.98in /  1015.1hPa WNW 1.3mph /  2.1km/h 4mph /  6.4km/h 94% 0.00in /  0mm 83 W/m2
08:49 59.4 °F /  15.2 °C 58.5 °F /  14.7 °C 29.98in /  1015.1hPa WNW 0.9mph /  1.4km/h 4mph /  6.4km/h 94% 0.00in /  0mm 107 W/m2
08:54 59.4 °F /  15.2 °C 58.6 °F /  14.8 °C 29.98in /  1015.1hPa Calm   2mph /  3.2km/h 94.4% 0.00in /  0mm 118 W/m2
08:59 59.5 °F /  15.3 °C 58.8 °F /  14.9 °C 29.98in /  1015.1hPa Calm   1mph /  1.6km/h 94.6% 0.00in /  0mm 125 W/m2
09:04 59.5 °F /  15.3 °C 58.6 °F /  14.8 °C 29.98in /  1015.1hPa Calm     94% 0.00in /  0mm 149 W/m2
09:09 59.7 °F /  15.4 °C 58.8 °F /  14.9 °C 29.98in /  1015.1hPa Calm     94% 0.00in /  0mm 199 W/m2
09:14 59.9 °F /  15.5 °C 59.2 °F /  15.1 °C 29.98in /  1015.1hPa WNW 1mph /  1.6km/h 3mph /  4.8km/h 94.6% 0.00in /  0mm 155 W/m2
09:19 59.9 °F /  15.5 °C 59.4 °F /  15.2 °C 29.98in /  1015.1hPa WNW 1mph /  1.6km/h 3mph /  4.8km/h 95% 0.00in /  0mm 135 W/m2
09:24 59.9 °F /  15.5 °C 59.4 °F /  15.2 °C 29.98in /  1015.1hPa Calm   2mph /  3.2km/h 95% 0.00in /  0mm 142 W/m2
09:29 60.2 °F /  15.7 °C 59.4 °F /  15.2 °C 29.98in /  1015.1hPa Calm     94.4% 0.00in /  0mm 153 W/m2
09:34 60.4 °F /  15.8 °C 59.5 °F /  15.3 °C 29.98in /  1015.1hPa WNW 0.4mph /  0.6km/h 2mph /  3.2km/h 94% 0.00in /  0mm 155 W/m2
09:39 60.4 °F /  15.8 °C 59.5 °F /  15.3 °C 29.98in /  1015.1hPa Calm   1mph /  1.6km/h 94% 0.00in /  0mm 149 W/m2
09:44 60.7 °F /  15.9 °C 59.8 °F /  15.4 °C 29.98in /  1015.1hPa Calm     94% 0.00in /  0mm 158 W/m2
09:49 61 °F /  16.1 °C 60.1 °F /  15.6 °C 29.98in /  1015.1hPa Calm     94% 0.00in /  0mm 149 W/m2
09:54 61 °F /  16.1 °C 60.1 °F /  15.6 °C 29.98in /  1015.1hPa WNW 1.2mph /  1.9km/h 3mph /  4.8km/h 94% 0.00in /  0mm 135 W/m2
09:59 61.1 °F /  16.2 °C 60.2 °F /  15.7 °C 29.98in /  1015.1hPa WNW 0.2mph /  0.3km/h 3mph /  4.8km/h 94% 0.00in /  0mm 151 W/m2
10:04 61.4 °F /  16.3 °C 60.5 °F /  15.8 °C 29.98in /  1015.1hPa WNW 0.2mph /  0.3km/h 2mph /  3.2km/h 94% 0.00in /  0mm 169 W/m2
10:09 61.9 °F /  16.6 °C 61 °F /  16.1 °C 29.98in /  1015.1hPa Calm     94% 0.00in /  0mm 185 W/m2
10:14 61.9 °F /  16.6 °C 61 °F /  16.1 °C 29.98in /  1015.1hPa Calm     93.8% 0.00in /  0mm 179 W/m2
10:19 62 °F /  16.7 °C 60.9 °F /  16.1 °C 29.98in /  1015.1hPa Calm   2mph /  3.2km/h 93% 0.00in /  0mm 186 W/m2
10:24 62.3 °F /  16.8 °C 61.3 °F /  16.3 °C 29.98in /  1015.1hPa Calm     93% 0.00in /  0mm 237 W/m2
10:29 62.4 °F /  16.9 °C 61.3 °F /  16.3 °C 29.98in /  1015.1hPa WNW 0.8mph /  1.3km/h 2mph /  3.2km/h 92.8% 0.00in /  0mm 253 W/m2
10:34 62.7 °F /  17.1 °C 61.2 °F /  16.2 °C 29.97in /  1014.8hPa WNW 0.2mph /  0.3km/h 3mph /  4.8km/h 92% 0.00in /  0mm 253 W/m2
10:39 62.9 °F /  17.2 °C 61.2 °F /  16.2 °C 29.98in /  1015.1hPa Calm     91.2% 0.00in /  0mm 211 W/m2
10:44 63.5 °F /  17.5 °C 61.7 °F /  16.5 °C 29.98in /  1015.1hPa Calm     91% 0.00in /  0mm 202 W/m2
10:49 64 °F /  17.8 °C 62 °F /  16.7 °C 29.98in /  1015.1hPa Calm     90.4% 0.00in /  0mm 202 W/m2
10:54 64 °F /  17.8 °C 61.8 °F /  16.6 °C 29.98in /  1015.1hPa WNW 0.6mph /  1km/h 3mph /  4.8km/h 89.4% 0.00in /  0mm 178 W/m2
10:59 64 °F /  17.8 °C 61.7 °F /  16.5 °C 29.98in /  1015.1hPa Calm     89% 0.00in /  0mm 171 W/m2
11:04 64.2 °F /  17.9 °C 61.7 °F /  16.5 °C 29.98in /  1015.1hPa Calm     88.6% 0.00in /  0mm 202 W/m2
11:09 64.6 °F /  18.1 °C 61.9 °F /  16.6 °C 29.97in /  1014.8hPa Calm     88% 0.00in /  0mm 225 W/m2
11:14 64.8 °F /  18.2 °C 61.9 °F /  16.6 °C 29.97in /  1014.8hPa WNW 1mph /  1.6km/h 5mph /  8km/h 87.6% 0.00in /  0mm 258 W/m2
11:19 64.6 °F /  18.1 °C 61.1 °F /  16.2 °C 29.97in /  1014.8hPa WNW 2.3mph /  3.7km/h 5mph /  8km/h 85.8% 0.00in /  0mm 262 W/m2
11:24 64.6 °F /  18.1 °C 60.5 °F /  15.8 °C 29.97in /  1014.8hPa WNW 2.6mph /  4.2km/h 6mph /  9.7km/h 84% 0.00in /  0mm 262 W/m2
11:29 64.8 °F /  18.2 °C 60.4 °F /  15.8 °C 29.97in /  1014.8hPa WNW 1.7mph /  2.7km/h 4mph /  6.4km/h 83% 0.00in /  0mm 253 W/m2
11:34 64.9 °F /  18.3 °C 60.3 °F /  15.7 °C 29.96in /  1014.4hPa WNW 0.8mph /  1.3km/h 4mph /  6.4km/h 82% 0.00in /  0mm 241 W/m2
11:39 65.6 °F /  18.7 °C 60.8 °F /  16 °C 29.96in /  1014.4hPa Calm   2mph /  3.2km/h 81.6% 0.00in /  0mm 260 W/m2
11:44 65.9 °F /  18.8 °C 60.9 °F /  16.1 °C 29.96in /  1014.4hPa WNW 0.6mph /  1km/h 3mph /  4.8km/h 81% 0.00in /  0mm 248 W/m2
11:49 66 °F /  18.9 °C 60.8 °F /  16 °C 29.96in /  1014.4hPa WNW 2.2mph /  3.5km/h 5mph /  8km/h 80.4% 0.00in /  0mm 237 W/m2
11:54 66 °F /  18.9 °C 61 °F /  16.1 °C 29.96in /  1014.4hPa WNW 1.5mph /  2.4km/h 4mph /  6.4km/h 81% 0.00in /  0mm 230 W/m2
11:59 66 °F /  18.9 °C 61 °F /  16.1 °C 29.96in /  1014.4hPa WNW 2.1mph /  3.4km/h 5mph /  8km/h 81% 0.00in /  0mm 193 W/m2
12:04 66 °F /  18.9 °C 61 °F /  16.1 °C 29.96in /  1014.4hPa WNW 1.2mph /  1.9km/h 4mph /  6.4km/h 81% 0.00in /  0mm 190 W/m2
12:09 66.1 °F /  18.9 °C 61.1 °F /  16.2 °C 29.96in /  1014.4hPa WNW 1.4mph /  2.3km/h 4mph /  6.4km/h 81% 0.00in /  0mm 197 W/m2
12:14 66.3 °F /  19.1 °C 61.2 °F /  16.2 °C 29.96in /  1014.4hPa WNW 1.3mph /  2.1km/h 4mph /  6.4km/h 81% 0.00in /  0mm 167 W/m2
12:19 66.2 °F /  19 °C 61.2 °F /  16.2 °C 29.96in /  1014.4hPa WNW 1.4mph /  2.3km/h 5mph /  8km/h 81% 0.00in /  0mm 142 W/m2
12:24 66 °F /  18.9 °C 61 °F /  16.1 °C 29.96in /  1014.4hPa WNW 2.4mph /  3.9km/h 4mph /  6.4km/h 81% 0.00in /  0mm 121 W/m2
12:29 65.8 °F /  18.8 °C 60.8 °F /  16 °C 29.96in /  1014.4hPa WNW 1.3mph /  2.1km/h 5mph /  8km/h 81% 0.00in /  0mm 174 W/m2
12:34 65.7 °F /  18.7 °C 61 °F /  16.1 °C 29.96in /  1014.4hPa WNW 2.5mph /  4km/h 5mph /  8km/h 82% 0.00in /  0mm 169 W/m2
12:39 65.7 °F /  18.7 °C 61 °F /  16.1 °C 29.96in /  1014.4hPa WNW 1mph /  1.6km/h 3mph /  4.8km/h 82% 0.00in /  0mm 148 W/m2
12:44 65.8 °F /  18.8 °C 61 °F /  16.1 °C 29.96in /  1014.4hPa Calm     82% 0.00in /  0mm 146 W/m2
12:49 65.9 °F /  18.8 °C 61.1 °F /  16.2 °C 29.96in /  1014.4hPa WNW 2.2mph /  3.5km/h 6mph /  9.7km/h 82% 0.00in /  0mm 148 W/m2
12:54 65.8 °F /  18.8 °C 61.1 °F /  16.2 °C 29.96in /  1014.4hPa WNW 0.6mph /  1km/h 4mph /  6.4km/h 82.2% 0.00in /  0mm 151 W/m2
12:59 65.8 °F /  18.8 °C 61.3 °F /  16.3 °C 29.96in /  1014.4hPa WNW 1mph /  1.6km/h 5mph /  8km/h 83% 0.00in /  0mm 165 W/m2
13:04 65.8 °F /  18.8 °C 61.3 °F /  16.3 °C 29.95in /  1014.1hPa WNW 0.8mph /  1.3km/h 5mph /  8km/h 83% 0.00in /  0mm 174 W/m2
13:09 65.9 °F /  18.8 °C 61.4 °F /  16.3 °C 29.95in /  1014.1hPa WNW 0.4mph /  0.6km/h 3mph /  4.8km/h 83% 0.00in /  0mm 174 W/m2
13:14 66 °F /  18.9 °C 61.5 °F /  16.4 °C 29.95in /  1014.1hPa WNW 1.8mph /  2.9km/h 4mph /  6.4km/h 83% 0.00in /  0mm 155 W/m2
13:19 66 °F /  18.9 °C 61.5 °F /  16.4 °C 29.95in /  1014.1hPa WNW 1mph /  1.6km/h 4mph /  6.4km/h 83% 0.00in /  0mm 186 W/m2
13:24 66.1 °F /  18.9 °C 61.6 °F /  16.4 °C 29.94in /  1013.8hPa Calm     83% 0.00in /  0mm 229 W/m2
13:29 66.4 °F /  19.1 °C 61.8 °F /  16.6 °C 29.94in /  1013.8hPa Calm     82.8% 0.00in /  0mm 260 W/m2
13:34 66.4 °F /  19.1 °C 61.6 °F /  16.4 °C 29.94in /  1013.8hPa WNW 0.2mph /  0.3km/h 2mph /  3.2km/h 82.2% 0.00in /  0mm 260 W/m2
13:39 66.4 °F /  19.1 °C 61.5 °F /  16.4 °C 29.94in /  1013.8hPa WNW 0.4mph /  0.6km/h 2mph /  3.2km/h 82% 0.00in /  0mm 225 W/m2
13:44 66.4 °F /  19.1 °C 61.5 °F /  16.4 °C 29.94in /  1013.8hPa WNW 1.2mph /  1.9km/h 4mph /  6.4km/h 82% 0.00in /  0mm 171 W/m2
13:49 66.3 °F /  19.1 °C 61.3 °F /  16.3 °C 29.94in /  1013.8hPa WNW 0.7mph /  1.1km/h 3mph /  4.8km/h 82% 0.00in /  0mm 163 W/m2
13:54 66.3 °F /  19.1 °C 61.4 °F /  16.3 °C 29.94in /  1013.8hPa WNW 1mph /  1.6km/h 4mph /  6.4km/h 82% 0.00in /  0mm 172 W/m2
13:59 66.4 °F /  19.1 °C 61.5 °F /  16.4 °C 29.94in /  1013.8hPa WNW 1.7mph /  2.7km/h 4mph /  6.4km/h 82% 0.00in /  0mm 151 W/m2
14:04 66.6 °F /  19.2 °C 61.7 °F /  16.5 °C 29.94in /  1013.8hPa Calm   2mph /  3.2km/h 82% 0.00in /  0mm 134 W/m2
14:09 66.6 °F /  19.2 °C 61.7 °F /  16.5 °C 29.94in /  1013.8hPa Calm     82% 0.00in /  0mm 165 W/m2
14:14 66.7 °F /  19.3 °C 61.8 °F /  16.6 °C 29.94in /  1013.8hPa Calm     82% 0.00in /  0mm 186 W/m2
14:19 66.8 °F /  19.3 °C 62 °F /  16.7 °C 29.93in /  1013.4hPa Calm     82% 0.00in /  0mm 190 W/m2
14:24 67.2 °F /  19.6 °C 62.3 °F /  16.8 °C 29.93in /  1013.4hPa Calm     81.8% 0.00in /  0mm 174 W/m2
14:29 67.4 °F /  19.7 °C 62.4 °F /  16.9 °C 29.93in /  1013.4hPa Calm     81.6% 0.00in /  0mm 151 W/m2
14:34 67.5 °F /  19.7 °C 62.2 °F /  16.8 °C 29.93in /  1013.4hPa Calm     81% 0.00in /  0mm 102 W/m2
14:39 67.5 °F /  19.7 °C 62.2 °F /  16.8 °C 29.93in /  1013.4hPa Calm     81% 0.00in /  0mm 83 W/m2
14:44 67.3 °F /  19.6 °C 62.1 °F /  16.7 °C 29.93in /  1013.4hPa Calm     81% 0.00in /  0mm 116 W/m2
14:49 67.3 °F /  19.6 °C 62.1 °F /  16.7 °C 29.93in /  1013.4hPa Calm     81% 0.00in /  0mm 149 W/m2
14:54 67.4 °F /  19.7 °C 62.1 °F /  16.7 °C 29.93in /  1013.4hPa Calm     81% 0.00in /  0mm 139 W/m2
14:59 67.3 °F /  19.6 °C 62.1 °F /  16.7 °C 29.93in /  1013.4hPa Calm     81% 0.00in /  0mm 91 W/m2
15:04 67.5 °F /  19.7 °C 62.2 °F /  16.8 °C 29.93in /  1013.4hPa Calm     81% 0.00in /  0mm 69 W/m2
15:09 67.5 °F /  19.7 °C 62.2 °F /  16.8 °C 29.92in /  1013.1hPa Calm     81% 0.00in /  0mm 72 W/m2
15:14 67.5 °F /  19.7 °C 62.2 °F /  16.8 °C 29.92in /  1013.1hPa Calm     81% 0.00in /  0mm 95 W/m2
15:19 67.2 °F /  19.6 °C 62 °F /  16.7 °C 29.92in /  1013.1hPa Calm     81.2% 0.00in /  0mm 132 W/m2
15:24 66.7 °F /  19.3 °C 61.9 °F /  16.6 °C 29.92in /  1013.1hPa Calm     82% 0.00in /  0mm 160 W/m2
15:29 66.5 °F /  19.2 °C 61.8 °F /  16.6 °C 29.92in /  1013.1hPa Calm     82.6% 0.00in /  0mm 178 W/m2
15:34 66.7 °F /  19.3 °C 62.2 °F /  16.8 °C 29.92in /  1013.1hPa WNW 0.4mph /  0.6km/h 2mph /  3.2km/h 83% 0.00in /  0mm 188 W/m2
15:39 66.9 °F /  19.4 °C 62.4 °F /  16.9 °C 29.92in /  1013.1hPa Calm   1mph /  1.6km/h 83% 0.00in /  0mm 185 W/m2
15:44 67.3 °F /  19.6 °C 62.8 °F /  17.1 °C 29.91in /  1012.8hPa WNW 0.5mph /  0.8km/h 2mph /  3.2km/h 83% 0.00in /  0mm 174 W/m2
15:49 67 °F /  19.4 °C 62.2 °F /  16.8 °C 29.91in /  1012.8hPa Calm   2mph /  3.2km/h 82% 0.00in /  0mm 162 W/m2
15:54 66.8 °F /  19.3 °C 62.1 °F /  16.7 °C 29.91in /  1012.8hPa WNW 0.2mph /  0.3km/h 2mph /  3.2km/h 82.4% 0.00in /  0mm 132 W/m2
15:59 66.6 °F /  19.2 °C 62.1 °F /  16.7 °C 29.91in /  1012.8hPa WNW 1mph /  1.6km/h 3mph /  4.8km/h 83% 0.00in /  0mm 114 W/m2
16:04 66.6 °F /  19.2 °C 62.1 °F /  16.7 °C 29.91in /  1012.8hPa WNW 1mph /  1.6km/h 3mph /  4.8km/h 83% 0.00in /  0mm 97 W/m2
16:09 66.6 °F /  19.2 °C 62.1 °F /  16.7 °C 29.91in /  1012.8hPa WNW 1.6mph /  2.6km/h 5mph /  8km/h 83% 0.00in /  0mm 72 W/m2
16:14 66.4 °F /  19.1 °C 62.1 °F /  16.7 °C 29.91in /  1012.8hPa WNW 2.8mph /  4.5km/h 6mph /  9.7km/h 83.6% 0.00in /  0mm 54 W/m2
16:19 66.1 °F /  18.9 °C 62.3 °F /  16.8 °C 29.91in /  1012.8hPa WNW 0.6mph /  1km/h 6mph /  9.7km/h 84.8% 0.00in /  0mm 49 W/m2
16:24 65.9 °F /  18.8 °C 62.2 °F /  16.8 °C 29.91in /  1012.8hPa WNW 1.9mph /  3.1km/h 5mph /  8km/h 85% 0.00in /  0mm 63 W/m2
16:29 65.7 °F /  18.7 °C 62.3 °F /  16.8 °C 29.91in /  1012.8hPa WNW 1.3mph /  2.1km/h 5mph /  8km/h 86% 0.00in /  0mm 77 W/m2
16:34 65.5 °F /  18.6 °C 62.1 °F /  16.7 °C 29.91in /  1012.8hPa WNW 1.2mph /  1.9km/h 5mph /  8km/h 86% 0.00in /  0mm 81 W/m2
16:39 65.5 °F /  18.6 °C 62.2 °F /  16.8 °C 29.91in /  1012.8hPa WNW 2.9mph /  4.7km/h 6mph /  9.7km/h 86.6% 0.00in /  0mm 76 W/m2
16:44 65.1 °F /  18.4 °C 61.9 °F /  16.6 °C 29.91in /  1012.8hPa WNW 1.6mph /  2.6km/h 6mph /  9.7km/h 86.6% 0.00in /  0mm 60 W/m2
16:49 65.1 °F /  18.4 °C 62.1 °F /  16.7 °C 29.91in /  1012.8hPa WNW 1.2mph /  1.9km/h 5mph /  8km/h 87% 0.00in /  0mm 60 W/m2
16:54 65.1 °F /  18.4 °C 62.1 °F /  16.7 °C 29.91in /  1012.8hPa WNW 0.8mph /  1.3km/h 4mph /  6.4km/h 87% 0.00in /  0mm 56 W/m2
16:59 64.9 °F /  18.3 °C 62 °F /  16.7 °C 29.91in /  1012.8hPa WNW 1.3mph /  2.1km/h 4mph /  6.4km/h 87.2% 0.00in /  0mm 65 W/m2
17:04 64.9 °F /  18.3 °C 62.2 °F /  16.8 °C 29.91in /  1012.8hPa WNW 3mph /  4.8km/h 6mph /  9.7km/h 88% 0.00in /  0mm 65 W/m2
17:09 64.8 °F /  18.2 °C 62.1 °F /  16.7 °C 29.91in /  1012.8hPa WNW 0.6mph /  1km/h 5mph /  8km/h 88% 0.00in /  0mm 60 W/m2
17:14 64.8 °F /  18.2 °C 62.1 °F /  16.7 °C 29.91in /  1012.8hPa Calm   2mph /  3.2km/h 88% 0.00in /  0mm 69 W/m2
17:19 65 °F /  18.3 °C 62.3 °F /  16.8 °C 29.91in /  1012.8hPa Calm     88% 0.00in /  0mm 72 W/m2
17:24 65.3 °F /  18.5 °C 62.6 °F /  17 °C 29.91in /  1012.8hPa Calm     88% 0.00in /  0mm 72 W/m2
17:29 65.5 °F /  18.6 °C 62.8 °F /  17.1 °C 29.91in /  1012.8hPa Calm     88% 0.00in /  0mm 63 W/m2
17:34 65.5 °F /  18.6 °C 62.7 °F /  17.1 °C 29.90in /  1012.4hPa WNW 0.2mph /  0.3km/h 4mph /  6.4km/h 87.8% 0.00in /  0mm 51 W/m2
17:39 65.2 °F /  18.4 °C 62.1 °F /  16.7 °C 29.90in /  1012.4hPa WNW 0.8mph /  1.3km/h 4mph /  6.4km/h 87% 0.00in /  0mm 39 W/m2
17:44 65.1 °F /  18.4 °C 62.1 °F /  16.7 °C 29.90in /  1012.4hPa WNW 0.4mph /  0.6km/h 3mph /  4.8km/h 87% 0.00in /  0mm 35 W/m2
17:49 65.1 °F /  18.4 °C 62.1 °F /  16.7 °C 29.90in /  1012.4hPa Calm   1mph /  1.6km/h 87% 0.00in /  0mm 33 W/m2
17:54 65.1 °F /  18.4 °C 62.1 °F /  16.7 °C 29.90in /  1012.4hPa WNW 0.4mph /  0.6km/h 3mph /  4.8km/h 87% 0.00in /  0mm 25 W/m2
17:59 65.3 °F /  18.5 °C 62.2 °F /  16.8 °C 29.90in /  1012.4hPa Calm   3mph /  4.8km/h 87% 0.00in /  0mm 21 W/m2
18:04 65.3 °F /  18.5 °C 62.2 °F /  16.8 °C 29.90in /  1012.4hPa WNW 0.2mph /  0.3km/h 3mph /  4.8km/h 87% 0.00in /  0mm 19 W/m2
18:09 65.1 °F /  18.4 °C 62.1 °F /  16.7 °C 29.90in /  1012.4hPa WNW 0.8mph /  1.3km/h 3mph /  4.8km/h 87% 0.00in /  0mm 18 W/m2
18:14 64.9 °F /  18.3 °C 61.9 °F /  16.6 °C 29.90in /  1012.4hPa WNW 0.2mph /  0.3km/h 3mph /  4.8km/h 87% 0.00in /  0mm 18 W/m2
18:19 64.9 °F /  18.3 °C 61.9 °F /  16.6 °C 29.90in /  1012.4hPa Calm   2mph /  3.2km/h 87% 0.00in /  0mm 16 W/m2
18:24 64.9 °F /  18.3 °C 61.9 °F /  16.6 °C 29.90in /  1012.4hPa WNW 1.8mph /  2.9km/h 5mph /  8km/h 87% 0.00in /  0mm 14 W/m2
18:29 64.9 °F /  18.3 °C 61.9 °F /  16.6 °C 29.90in /  1012.4hPa WNW 0.4mph /  0.6km/h 3mph /  4.8km/h 87% 0.00in /  0mm 9 W/m2
18:34 64.9 °F /  18.3 °C 62 °F /  16.7 °C 29.90in /  1012.4hPa WNW 0.4mph /  0.6km/h 4mph /  6.4km/h 87.4% 0.00in /  0mm 5 W/m2
18:39 64.9 °F /  18.3 °C 62.2 °F /  16.8 °C 29.90in /  1012.4hPa WNW 0.6mph /  1km/h 4mph /  6.4km/h 88% 0.00in /  0mm 0 W/m2
18:44 64.9 °F /  18.3 °C 62.2 °F /  16.8 °C 29.90in /  1012.4hPa WNW 0.5mph /  0.8km/h 4mph /  6.4km/h 88% 0.00in /  0mm 0 W/m2
18:49 65 °F /  18.3 °C 62.3 °F /  16.8 °C 29.90in /  1012.4hPa WNW 0.4mph /  0.6km/h 4mph /  6.4km/h 88% 0.00in /  0mm 0 W/m2
18:54 65 °F /  18.3 °C 62.3 °F /  16.8 °C 29.90in /  1012.4hPa WNW 0.2mph /  0.3km/h 2mph /  3.2km/h 88% 0.00in /  0mm 0 W/m2
18:59 64.9 °F /  18.3 °C 62.2 °F /  16.8 °C 29.90in /  1012.4hPa WNW 0.4mph /  0.6km/h 3mph /  4.8km/h 88% 0.00in /  0mm 0 W/m2
19:04 64.9 °F /  18.3 °C 62.2 °F /  16.8 °C 29.90in /  1012.4hPa Calm   2mph /  3.2km/h 88% 0.00in /  0mm 0 W/m2
19:09 64.8 °F /  18.2 °C 62.1 °F /  16.7 °C 29.90in /  1012.4hPa WNW 1.6mph /  2.6km/h 5mph /  8km/h 88% 0.00in /  0mm 0 W/m2
19:14 64.8 °F /  18.2 °C 62.1 °F /  16.7 °C 29.90in /  1012.4hPa WNW 1.8mph /  2.9km/h 5mph /  8km/h 88% 0.00in /  0mm 0 W/m2
19:19 64.6 °F /  18.1 °C 62 °F /  16.7 °C 29.90in /  1012.4hPa WNW 1.7mph /  2.7km/h 5mph /  8km/h 88.4% 0.00in /  0mm 0 W/m2
19:24 64.6 °F /  18.1 °C 62.2 °F /  16.8 °C 29.90in /  1012.4hPa Calm   2mph /  3.2km/h 89% 0.00in /  0mm 0 W/m2
19:29 64.6 °F /  18.1 °C 62.2 °F /  16.8 °C 29.90in /  1012.4hPa WNW 0.2mph /  0.3km/h 2mph /  3.2km/h 89% 0.00in /  0mm 0 W/m2
19:34 64.4 °F /  18 °C 62.1 °F /  16.7 °C 29.90in /  1012.4hPa WNW 2.6mph /  4.2km/h 5mph /  8km/h 89% 0.00in /  0mm 0 W/m2
19:39 64.1 °F /  17.8 °C 61.9 °F /  16.6 °C 29.90in /  1012.4hPa WNW 4.5mph /  7.2km/h 7mph /  11.3km/h 89.4% 0.00in /  0mm 0 W/m2
19:44 64 °F /  17.8 °C 61.9 °F /  16.6 °C 29.90in /  1012.4hPa WNW 3.7mph /  6km/h 8mph /  12.9km/h 90% 0.00in /  0mm 0 W/m2
19:49 63.9 °F /  17.7 °C 61.7 °F /  16.5 °C 29.90in /  1012.4hPa West 4.7mph /  7.6km/h 9mph /  14.5km/h 90% 0.00in /  0mm 0 W/m2
19:54 63.7 °F /  17.6 °C 61.5 °F /  16.4 °C 29.90in /  1012.4hPa WSW 3.4mph /  5.5km/h 6mph /  9.7km/h 90% 0.00in /  0mm 0 W/m2
19:59 63.6 °F /  17.6 °C 61.4 °F /  16.3 °C 29.90in /  1012.4hPa WSW 2.8mph /  4.5km/h 6mph /  9.7km/h 90% 0.00in /  0mm 0 W/m2
20:04 63.3 °F /  17.4 °C 61.2 °F /  16.2 °C 29.90in /  1012.4hPa WSW 1.7mph /  2.7km/h 6mph /  9.7km/h 90% 0.00in /  0mm 0 W/m2
20:09 63.3 °F /  17.4 °C 61.2 °F /  16.2 °C 29.90in /  1012.4hPa WSW 3mph /  4.8km/h 7mph /  11.3km/h 90% 0.00in /  0mm 0 W/m2
20:14 63.1 °F /  17.3 °C 61 °F /  16.1 °C 29.90in /  1012.4hPa WSW 2.8mph /  4.5km/h 5mph /  8km/h 90% 0.00in /  0mm 0 W/m2
20:19 63.1 °F /  17.3 °C 60.9 °F /  16.1 °C 29.90in /  1012.4hPa WSW 2.6mph /  4.2km/h 8mph /  12.9km/h 90% 0.00in /  0mm 0 W/m2
20:24 63.1 °F /  17.3 °C 61 °F /  16.1 °C 29.90in /  1012.4hPa WSW 1mph /  1.6km/h 3mph /  4.8km/h 90% 0.00in /  0mm 0 W/m2
20:29 63 °F /  17.2 °C 60.8 °F /  16 °C 29.90in /  1012.4hPa WSW 1.3mph /  2.1km/h 3mph /  4.8km/h 90% 0.00in /  0mm 0 W/m2
20:34 63 °F /  17.2 °C 60.8 °F /  16 °C 29.90in /  1012.4hPa WSW 2.5mph /  4km/h 6mph /  9.7km/h 90% 0.00in /  0mm 0 W/m2
20:39 63 °F /  17.2 °C 60.8 °F /  16 °C 29.90in /  1012.4hPa WSW 0.4mph /  0.6km/h 6mph /  9.7km/h 90% 0.00in /  0mm 0 W/m2
20:44 63 °F /  17.2 °C 60.8 °F /  16 °C 29.90in /  1012.4hPa WSW 1mph /  1.6km/h 4mph /  6.4km/h 90% 0.00in /  0mm 0 W/m2
20:49 62.8 °F /  17.1 °C 60.6 °F /  15.9 °C 29.90in /  1012.4hPa WSW 2.7mph /  4.3km/h 8mph /  12.9km/h 90% 0.00in /  0mm 0 W/m2
20:54 62.8 °F /  17.1 °C 60.6 °F /  15.9 °C 29.90in /  1012.4hPa WSW 2.5mph /  4km/h 7mph /  11.3km/h 90% 0.00in /  0mm 0 W/m2
20:59 62.8 °F /  17.1 °C 60.6 °F /  15.9 °C 29.90in /  1012.4hPa WSW 1.4mph /  2.3km/h 5mph /  8km/h 90% 0.00in /  0mm 0 W/m2
21:04 62.8 °F /  17.1 °C 60.6 °F /  15.9 °C 29.90in /  1012.4hPa Calm   1mph /  1.6km/h 90% 0.00in /  0mm 0 W/m2
21:09 62.8 °F /  17.1 °C 60.6 °F /  15.9 °C 29.90in /  1012.4hPa WSW 0.4mph /  0.6km/h 2mph /  3.2km/h 90% 0.00in /  0mm 0 W/m2
21:14 62.8 °F /  17.1 °C 60.6 °F /  15.9 °C 29.89in /  1012.1hPa Calm     90% 0.00in /  0mm 0 W/m2
21:19 62.8 °F /  17.1 °C 60.6 °F /  15.9 °C 29.89in /  1012.1hPa WSW 0.4mph /  0.6km/h 2mph /  3.2km/h 90% 0.00in /  0mm 0 W/m2
21:24 62.8 °F /  17.1 °C 60.6 °F /  15.9 °C 29.89in /  1012.1hPa WSW 1mph /  1.6km/h 4mph /  6.4km/h 90% 0.00in /  0mm 0 W/m2
21:29 62.4 °F /  16.9 °C 60.3 °F /  15.7 °C 29.89in /  1012.1hPa WSW 0.2mph /  0.3km/h 2mph /  3.2km/h 90% 0.00in /  0mm 0 W/m2
21:34 62.4 °F /  16.9 °C 60.3 °F /  15.7 °C 29.89in /  1012.1hPa Calm   1mph /  1.6km/h 90% 0.00in /  0mm 0 W/m2
21:39 62.4 °F /  16.9 °C 60.3 °F /  15.7 °C 29.89in /  1012.1hPa Calm     90% 0.00in /  0mm 0 W/m2
21:44 62.2 °F /  16.8 °C 60.1 °F /  15.6 °C 29.89in /  1012.1hPa WSW 0.9mph /  1.4km/h 4mph /  6.4km/h 90% 0.00in /  0mm 0 W/m2
21:49 62 °F /  16.7 °C 59.6 °F /  15.3 °C 29.90in /  1012.4hPa WSW 1mph /  1.6km/h 4mph /  6.4km/h 89% 0.00in /  0mm 0 W/m2
21:54 62 °F /  16.7 °C 59.7 °F /  15.4 °C 29.90in /  1012.4hPa WSW 1mph /  1.6km/h 5mph /  8km/h 89.2% 0.00in /  0mm 0 W/m2
21:59 61.9 °F /  16.6 °C 59.5 °F /  15.3 °C 29.90in /  1012.4hPa WSW 1.4mph /  2.3km/h 4mph /  6.4km/h 89% 0.00in /  0mm 0 W/m2
22:04 61.6 °F /  16.4 °C 59.3 °F /  15.2 °C 29.90in /  1012.4hPa WSW 2.5mph /  4km/h 5mph /  8km/h 89% 0.00in /  0mm 0 W/m2
22:09 61.3 °F /  16.3 °C 58.9 °F /  14.9 °C 29.90in /  1012.4hPa WSW 0.2mph /  0.3km/h 2mph /  3.2km/h 88.6% 0.00in /  0mm 0 W/m2
22:14 61.3 °F /  16.3 °C 58.6 °F /  14.8 °C 29.90in /  1012.4hPa WSW 0.6mph /  1km/h 3mph /  4.8km/h 88% 0.00in /  0mm 0 W/m2
22:19 61.2 °F /  16.2 °C 58.5 °F /  14.7 °C 29.90in /  1012.4hPa Calm     88% 0.00in /  0mm 0 W/m2
22:24 61.1 °F /  16.2 °C 58.4 °F /  14.7 °C 29.90in /  1012.4hPa WSW 0.6mph /  1km/h 3mph /  4.8km/h 88% 0.00in /  0mm 0 W/m2
22:29 60.8 °F /  16 °C 58.1 °F /  14.5 °C 29.90in /  1012.4hPa WSW 0.4mph /  0.6km/h 3mph /  4.8km/h 88% 0.00in /  0mm 0 W/m2
22:34 60.6 °F /  15.9 °C 57.9 °F /  14.4 °C 29.90in /  1012.4hPa WSW 0.4mph /  0.6km/h 2mph /  3.2km/h 88% 0.00in /  0mm 0 W/m2
22:39 60.6 °F /  15.9 °C 57.9 °F /  14.4 °C 29.90in /  1012.4hPa WSW 0.2mph /  0.3km/h 2mph /  3.2km/h 88% 0.00in /  0mm 0 W/m2
22:44 60.4 °F /  15.8 °C 57.7 °F /  14.3 °C 29.90in /  1012.4hPa WSW 1.4mph /  2.3km/h 4mph /  6.4km/h 88% 0.00in /  0mm 0 W/m2
22:49 60.4 °F /  15.8 °C 58 °F /  14.4 °C 29.90in /  1012.4hPa Calm     88.8% 0.00in /  0mm 0 W/m2
22:54 60.4 °F /  15.8 °C 58.1 °F /  14.5 °C 29.90in /  1012.4hPa WSW 0.4mph /  0.6km/h 3mph /  4.8km/h 89% 0.00in /  0mm 0 W/m2
22:59 60.4 °F /  15.8 °C 58.1 °F /  14.5 °C 29.90in /  1012.4hPa WSW 0.5mph /  0.8km/h 3mph /  4.8km/h 89% 0.00in /  0mm 0 W/m2
23:04 60.4 °F /  15.8 °C 58.1 °F /  14.5 °C 29.90in /  1012.4hPa WSW 1.8mph /  2.9km/h 3mph /  4.8km/h 89% 0.00in /  0mm 0 W/m2
23:09 60.4 °F /  15.8 °C 58.1 °F /  14.5 °C 29.90in /  1012.4hPa WSW 0.4mph /  0.6km/h 3mph /  4.8km/h 89% 0.00in /  0mm 0 W/m2
23:14 60.3 °F /  15.7 °C 57.9 °F /  14.4 °C 29.90in /  1012.4hPa WSW 0.4mph /  0.6km/h 2mph /  3.2km/h 89% 0.00in /  0mm 0 W/m2
23:19 60.3 °F /  15.7 °C 57.9 °F /  14.4 °C 29.90in /  1012.4hPa WSW 0.4mph /  0.6km/h 3mph /  4.8km/h 89% 0.00in /  0mm 0 W/m2
23:24 60.2 °F /  15.7 °C 57.8 °F /  14.3 °C 29.90in /  1012.4hPa WSW 1.2mph /  1.9km/h 3mph /  4.8km/h 89% 0.00in /  0mm 0 W/m2
23:29 60.1 °F /  15.6 °C 57.7 °F /  14.3 °C 29.89in /  1012.1hPa WSW 0.4mph /  0.6km/h 3mph /  4.8km/h 89% 0.00in /  0mm 0 W/m2
23:34 60.1 °F /  15.6 °C 57.7 °F /  14.3 °C 29.89in /  1012.1hPa Calm   1mph /  1.6km/h 89% 0.00in /  0mm 0 W/m2
23:39 59.9 °F /  15.5 °C 57.6 °F /  14.2 °C 29.89in /  1012.1hPa Calm   1mph /  1.6km/h 89% 0.00in /  0mm 0 W/m2
23:44 59.9 °F /  15.5 °C 57.6 °F /  14.2 °C 29.89in /  1012.1hPa WSW 1mph /  1.6km/h 3mph /  4.8km/h 89% 0.00in /  0mm 0 W/m2
23:49 59.7 °F /  15.4 °C 57.4 °F /  14.1 °C 29.89in /  1012.1hPa WSW 1.6mph /  2.6km/h 4mph /  6.4km/h 89% 0.00in /  0mm 0 W/m2
23:54 59.7 °F /  15.4 °C 57.4 °F /  14.1 °C 29.89in /  1012.1hPa Calm   3mph /  4.8km/h 89% 0.00in /  0mm 0 W/m2
23:59 59.6 °F /  15.3 °C 57.3 °F /  14.1 °C 29.89in /  1012.1hPa WSW 0.2mph /  0.3km/h 3mph /  4.8km/h 89% 0.00in /  0mm 0 W/m2
Bath Spa Weather
Compliments of Weather Underground - 2 mb